createdAt,value
2022-10-15T00:02:57.539Z,17.57
2022-10-15T00:06:02.419Z,13.10
2022-10-15T00:09:09.763Z,18.95
2022-10-15T00:12:16.422Z,14.65
2022-10-15T00:15:25.410Z,16.60
2022-10-15T00:18:31.645Z,15.78
2022-10-15T00:21:38.048Z,17.75
2022-10-15T00:24:45.362Z,16.73
2022-10-15T00:27:52.285Z,15.88
2022-10-15T00:30:59.371Z,14.18
2022-10-15T00:34:05.928Z,14.38
2022-10-15T00:37:14.499Z,17.30
2022-10-15T00:40:22.420Z,14.23
2022-10-15T00:43:27.269Z,16.97
2022-10-15T00:46:41.842Z,16.05
2022-10-15T00:49:52.684Z,15.03
2022-10-15T00:53:16.927Z,15.90
2022-10-15T00:56:22.357Z,14.10
2022-10-15T00:59:30.545Z,15.95
2022-10-15T01:02:36.403Z,14.75
2022-10-15T01:05:42.514Z,15.28
2022-10-15T01:08:49.657Z,15.43
2022-10-15T01:12:04.574Z,16.90
2022-10-15T01:15:34.577Z,16.73
2022-10-15T01:18:59.340Z,17.52
2022-10-15T01:22:17.000Z,18.17
2022-10-15T01:26:02.137Z,19.50
2022-10-15T01:29:30.237Z,17.65
2022-10-15T01:32:42.844Z,14.75
2022-10-15T01:36:06.395Z,13.75
2022-10-15T01:39:37.276Z,17.32
2022-10-15T01:42:50.242Z,15.33
2022-10-15T01:46:05.880Z,14.30
2022-10-15T01:49:19.729Z,12.68
2022-10-15T01:52:28.800Z,16.42
2022-10-15T01:55:35.348Z,11.05
2022-10-15T01:58:41.885Z,16.02
2022-10-15T02:01:48.859Z,14.60
2022-10-15T02:04:54.732Z,13.83
2022-10-15T02:08:08.347Z,17.10
2022-10-15T02:14:33.719Z,14.05
2022-10-15T02:17:50.423Z,11.73
2022-10-15T02:21:11.098Z,12.47
2022-10-15T02:24:27.543Z,13.15
2022-10-15T02:27:36.190Z,14.20
2022-10-15T02:30:41.271Z,12.25
2022-10-15T02:33:47.477Z,10.48
2022-10-15T02:36:55.248Z,14.65
2022-10-15T02:40:01.604Z,15.50
2022-10-15T02:43:07.637Z,14.00
2022-10-15T02:46:14.358Z,15.90
2022-10-15T02:49:20.262Z,14.50
2022-10-15T02:52:27.557Z,14.40
2022-10-15T02:55:32.876Z,14.80
2022-10-15T02:58:38.726Z,16.27
2022-10-15T03:01:43.796Z,14.50
2022-10-15T03:04:50.362Z,17.67
2022-10-15T03:07:50.876Z,18.77
2022-10-15T03:10:47.420Z,15.23
2022-10-15T03:13:53.669Z,16.30
2022-10-15T03:17:02.051Z,16.42
2022-10-15T03:20:07.586Z,17.17
2022-10-15T03:26:28.209Z,15.45
2022-10-15T03:29:35.608Z,18.62
2022-10-15T03:35:50.671Z,16.17
2022-10-15T03:38:56.719Z,18.10
2022-10-15T03:42:01.999Z,18.37
2022-10-15T03:45:09.586Z,15.70
2022-10-15T03:48:17.181Z,21.23
2022-10-15T03:51:25.574Z,24.63
2022-10-15T03:54:33.622Z,16.23
2022-10-15T03:57:39.833Z,17.30
2022-10-15T04:00:45.563Z,14.65
2022-10-15T04:03:52.504Z,20.08
2022-10-15T04:06:59.686Z,16.02
2022-10-15T04:10:07.220Z,17.95
2022-10-15T04:13:14.108Z,18.15
2022-10-15T04:16:21.005Z,18.17
2022-10-15T04:19:28.033Z,17.23
2022-10-15T04:22:35.419Z,14.83
2022-10-15T04:25:41.689Z,15.23
2022-10-15T04:28:47.850Z,18.07
2022-10-15T04:31:54.608Z,16.70
2022-10-15T04:35:01.562Z,15.05
2022-10-15T04:38:25.508Z,16.35
2022-10-15T04:41:33.754Z,19.48
2022-10-15T04:44:43.746Z,17.85
2022-10-15T04:47:50.885Z,16.52
2022-10-15T04:50:57.225Z,18.15
2022-10-15T04:54:05.059Z,19.23
2022-10-15T04:57:12.969Z,21.10
2022-10-15T05:00:19.719Z,25.55
2022-10-15T05:03:35.606Z,23.30
2022-10-15T05:06:40.984Z,24.10
2022-10-15T05:09:49.265Z,19.27
2022-10-15T05:12:56.898Z,18.02
2022-10-15T05:16:07.270Z,14.40
2022-10-15T05:19:15.875Z,23.73
2022-10-15T05:22:22.841Z,16.20
2022-10-15T05:25:33.594Z,14.18
2022-10-15T05:28:39.510Z,11.95
2022-10-15T05:31:47.995Z,15.93
2022-10-15T05:34:56.179Z,15.30
2022-10-15T05:38:05.238Z,14.43
2022-10-15T05:41:13.497Z,14.87
2022-10-15T05:44:20.001Z,15.23
2022-10-15T05:47:28.619Z,14.75
2022-10-15T05:50:44.715Z,13.15
2022-10-15T05:53:52.798Z,18.60
2022-10-15T05:57:00.603Z,17.87
2022-10-15T06:00:16.027Z,10.50
2022-10-15T06:03:31.041Z,10.72
2022-10-15T06:06:39.201Z,11.40
2022-10-15T06:09:46.277Z,13.65
2022-10-15T06:12:54.376Z,11.05
2022-10-15T06:16:01.476Z,11.22
2022-10-15T06:19:08.545Z,15.03
2022-10-15T06:22:15.341Z,10.40
2022-10-15T06:25:22.971Z,9.90
2022-10-15T06:28:28.138Z,12.05
2022-10-15T06:31:32.898Z,8.83
2022-10-15T06:34:38.126Z,8.50
2022-10-15T06:37:47.006Z,10.75
2022-10-15T06:40:53.315Z,10.40
2022-10-15T06:43:59.383Z,10.23
2022-10-15T06:47:06.341Z,8.55
2022-10-15T06:50:14.467Z,6.67
2022-10-15T06:53:20.801Z,8.58
2022-10-15T06:56:25.840Z,8.23
2022-10-15T06:59:31.786Z,10.00
2022-10-15T07:02:38.613Z,6.30
2022-10-15T07:05:45.496Z,7.28
2022-10-15T07:08:52.469Z,8.15
2022-10-15T07:12:00.039Z,7.62
2022-10-15T07:15:07.639Z,8.63
2022-10-15T07:18:13.874Z,8.10
2022-10-15T07:21:20.305Z,6.03
2022-10-15T07:24:26.884Z,8.50
2022-10-15T07:27:32.491Z,8.43
2022-10-15T07:30:38.824Z,10.08
2022-10-15T07:33:45.114Z,8.65
2022-10-15T07:36:53.389Z,6.95
2022-10-15T07:40:00.216Z,8.60
2022-10-15T07:43:10.122Z,5.80
2022-10-15T07:46:15.243Z,7.45
2022-10-15T07:49:23.278Z,9.33
2022-10-15T07:52:32.642Z,7.65
2022-10-15T07:55:38.420Z,6.28
2022-10-15T07:58:44.929Z,6.20
2022-10-15T08:01:51.656Z,7.78
2022-10-15T08:04:58.299Z,7.12
2022-10-15T08:08:04.381Z,8.85
2022-10-15T08:11:12.423Z,7.30
2022-10-15T08:14:18.357Z,6.30
2022-10-15T08:17:26.644Z,5.28
2022-10-15T08:20:32.522Z,4.30
2022-10-15T08:23:40.004Z,6.20
2022-10-15T08:26:46.509Z,6.95
2022-10-15T08:29:53.833Z,3.80
2022-10-15T08:32:59.584Z,5.50
2022-10-15T08:36:06.923Z,4.97
2022-10-15T08:39:14.640Z,2.95
2022-10-15T08:42:38.535Z,6.60
2022-10-15T08:45:51.824Z,5.72
2022-10-15T08:49:03.637Z,5.45
2022-10-15T08:52:11.552Z,3.60
2022-10-15T08:55:21.066Z,4.22
2022-10-15T08:58:55.470Z,3.92
2022-10-15T09:02:01.558Z,3.70
2022-10-15T09:05:17.199Z,5.33
2022-10-15T09:08:33.774Z,3.12
2022-10-15T09:12:17.808Z,4.90
2022-10-15T09:15:28.203Z,4.30
2022-10-15T09:18:39.955Z,4.00
2022-10-15T09:21:46.428Z,4.75
2022-10-15T09:24:53.433Z,8.78
2022-10-15T09:28:03.575Z,5.15
2022-10-15T09:31:11.959Z,5.08
2022-10-15T09:34:30.241Z,4.45
2022-10-15T09:37:49.957Z,7.72
2022-10-15T09:41:31.953Z,5.50
2022-10-15T09:44:39.321Z,3.12
2022-10-15T09:47:49.427Z,7.42
2022-10-15T09:50:58.279Z,5.83
2022-10-15T09:54:25.672Z,2.90
2022-10-15T09:57:31.111Z,3.80
2022-10-15T10:00:41.506Z,4.62
2022-10-15T10:03:51.828Z,4.65
2022-10-15T10:07:08.798Z,3.62
2022-10-15T10:10:20.907Z,5.75
2022-10-15T10:13:48.468Z,7.37
2022-10-15T10:16:54.056Z,3.90
2022-10-15T10:20:21.835Z,3.42
2022-10-15T10:23:38.938Z,4.28
2022-10-15T10:26:43.886Z,4.40
2022-10-15T10:29:53.823Z,4.47
2022-10-15T10:33:02.464Z,5.50
2022-10-15T10:39:31.673Z,8.08
2022-10-15T10:42:48.706Z,6.08
2022-10-15T10:46:09.676Z,7.08
2022-10-15T10:49:17.631Z,4.75
2022-10-15T10:52:50.922Z,4.58
2022-10-15T10:55:59.316Z,4.33
2022-10-15T10:59:27.363Z,4.62
2022-10-15T11:02:34.132Z,4.92
2022-10-15T11:05:48.962Z,3.70
2022-10-15T11:09:35.322Z,4.62
2022-10-15T11:13:02.997Z,5.53
2022-10-15T11:16:38.871Z,5.87
2022-10-15T11:20:21.743Z,3.75
2022-10-15T11:23:19.877Z,4.83
2022-10-15T11:27:17.518Z,5.42
2022-10-15T11:30:46.407Z,6.95
2022-10-15T11:34:10.267Z,5.75
2022-10-15T11:37:50.380Z,4.08
2022-10-15T11:41:28.788Z,5.85
2022-10-15T11:45:01.051Z,9.33
2022-10-15T11:48:36.113Z,7.40
2022-10-15T11:52:19.232Z,5.95
2022-10-15T11:56:17.925Z,4.83
2022-10-15T11:59:32.432Z,7.15
2022-10-15T12:02:51.542Z,5.87
2022-10-15T12:06:18.483Z,6.55
2022-10-15T12:09:28.506Z,6.08
2022-10-15T12:12:54.800Z,5.85
2022-10-15T12:16:18.825Z,2.58
2022-10-15T12:19:43.760Z,5.80
2022-10-15T12:22:54.404Z,3.70
2022-10-15T12:26:00.018Z,3.58
2022-10-15T12:29:11.512Z,7.05
2022-10-15T12:32:18.275Z,8.90
2022-10-15T12:35:33.293Z,6.65
2022-10-15T12:38:47.705Z,4.47
2022-10-15T12:41:58.590Z,6.15
2022-10-15T12:45:05.035Z,8.93
2022-10-15T12:48:25.353Z,5.87
2022-10-15T12:51:39.866Z,6.58
2022-10-15T12:54:59.029Z,6.10
2022-10-15T12:58:11.003Z,5.10
2022-10-15T13:01:31.692Z,7.05
2022-10-15T13:04:37.588Z,5.00
2022-10-15T13:07:44.818Z,6.45
2022-10-15T13:10:56.109Z,7.67
2022-10-15T13:14:03.243Z,5.97
2022-10-15T13:17:11.527Z,5.67
2022-10-15T13:20:23.499Z,5.42
2022-10-15T13:23:37.776Z,4.67
2022-10-15T13:26:42.945Z,5.50
2022-10-15T13:29:48.897Z,3.50
2022-10-15T13:33:04.079Z,3.58
2022-10-15T13:36:09.049Z,5.28
2022-10-15T13:39:21.251Z,8.93
2022-10-15T13:45:39.066Z,5.15
2022-10-15T13:48:48.122Z,4.92
2022-10-15T13:52:07.641Z,6.15
2022-10-15T13:55:15.360Z,4.50
2022-10-15T13:58:45.683Z,7.53
2022-10-15T14:01:51.272Z,5.17
2022-10-15T14:04:58.927Z,4.60
2022-10-15T14:08:09.713Z,4.67
2022-10-15T14:11:15.400Z,5.45
2022-10-15T14:14:43.755Z,9.65
2022-10-15T14:17:49.241Z,8.38
2022-10-15T14:20:59.842Z,6.37
2022-10-15T14:24:06.358Z,9.70
2022-10-15T14:27:19.030Z,11.63
2022-10-15T14:30:46.668Z,9.73
2022-10-15T14:37:00.529Z,6.78
2022-10-15T14:40:10.458Z,5.35
2022-10-15T14:43:32.081Z,7.62
2022-10-15T14:46:40.881Z,11.68
2022-10-15T14:49:48.348Z,7.33
2022-10-15T14:53:03.684Z,10.00
2022-10-15T14:56:14.621Z,9.75
2022-10-15T14:59:20.639Z,7.97
2022-10-15T15:02:30.588Z,14.23
2022-10-15T15:05:41.190Z,6.83
2022-10-15T15:08:46.604Z,11.12
2022-10-15T15:11:47.381Z,6.50
2022-10-15T15:14:42.741Z,11.60
2022-10-15T15:17:48.190Z,13.90
2022-10-15T15:20:57.847Z,9.38
2022-10-15T15:24:05.754Z,11.68
2022-10-15T15:27:13.709Z,9.28
2022-10-15T15:30:22.403Z,10.55
2022-10-15T15:33:31.979Z,8.88
2022-10-15T15:36:37.997Z,13.35
2022-10-15T15:39:45.514Z,12.15
2022-10-15T15:42:53.419Z,10.70
2022-10-15T15:46:01.091Z,9.33
2022-10-15T15:49:08.667Z,12.40
2022-10-15T15:52:15.549Z,12.03
2022-10-15T15:55:22.078Z,12.93
2022-10-15T15:58:29.259Z,23.25
2022-10-15T16:01:35.123Z,19.40
2022-10-15T16:04:42.134Z,23.10
2022-10-15T16:07:47.644Z,19.00
2022-10-15T16:10:55.310Z,22.02
2022-10-15T16:14:03.771Z,18.62
2022-10-15T16:17:09.499Z,17.73
2022-10-15T16:20:16.012Z,18.50
2022-10-15T16:23:22.641Z,21.70
2022-10-15T16:26:27.619Z,22.02
2022-10-15T16:29:34.058Z,22.75
2022-10-15T16:32:41.026Z,27.95
2022-10-15T16:35:47.618Z,26.52
2022-10-15T16:38:56.856Z,24.02
2022-10-15T16:42:02.701Z,29.67
2022-10-15T16:45:11.275Z,29.00
2022-10-15T16:48:16.491Z,33.18
2022-10-15T16:51:28.904Z,32.83
2022-10-15T16:54:33.253Z,28.20
2022-10-15T16:57:39.144Z,40.70
2022-10-15T17:00:43.943Z,35.25
2022-10-15T17:03:50.794Z,36.25
2022-10-15T17:06:57.632Z,33.15
2022-10-15T17:10:04.923Z,32.55
2022-10-15T17:13:12.328Z,32.05
2022-10-15T17:16:25.497Z,32.30
2022-10-15T17:19:35.570Z,40.80
2022-10-15T17:22:41.952Z,36.77
2022-10-15T17:25:48.389Z,43.87
2022-10-15T17:28:50.643Z,48.90
2022-10-15T17:31:38.722Z,53.40
2022-10-15T17:34:33.904Z,59.42
2022-10-15T17:37:20.337Z,58.30
2022-10-15T17:40:21.439Z,70.60
2022-10-15T17:43:27.778Z,89.83
2022-10-15T17:46:37.737Z,82.12
2022-10-15T17:49:44.702Z,85.62
2022-10-15T17:52:51.307Z,83.72
2022-10-15T17:55:57.455Z,78.65
2022-10-15T17:59:04.162Z,104.85
2022-10-15T18:02:10.711Z,84.72
2022-10-15T18:05:18.438Z,87.45
2022-10-15T18:08:24.694Z,79.67
2022-10-15T18:11:40.035Z,67.22
2022-10-15T18:14:45.974Z,76.72
2022-10-15T18:17:55.646Z,64.55
2022-10-15T18:21:01.183Z,67.00
2022-10-15T18:24:07.201Z,61.10
2022-10-15T18:27:14.013Z,55.73
2022-10-15T18:30:22.555Z,56.42
2022-10-15T18:33:28.111Z,65.15
2022-10-15T18:36:40.701Z,57.23
2022-10-15T18:39:46.731Z,65.65
2022-10-15T18:42:54.707Z,70.17
2022-10-15T18:46:01.864Z,62.40
2022-10-15T18:49:08.997Z,79.97
2022-10-15T18:52:21.876Z,68.57
2022-10-15T18:55:24.996Z,67.15
2022-10-15T18:58:31.442Z,52.95
2022-10-15T19:01:54.712Z,57.08
2022-10-15T19:05:02.839Z,58.48
2022-10-15T19:08:16.918Z,49.85
2022-10-15T19:11:21.504Z,50.15
2022-10-15T19:14:27.836Z,53.58
2022-10-15T19:17:29.316Z,52.30
2022-10-15T19:20:16.266Z,47.13
2022-10-15T19:23:10.989Z,50.80
2022-10-15T19:25:58.011Z,43.70
2022-10-15T19:28:54.070Z,49.67
2022-10-15T19:31:52.484Z,45.83
2022-10-15T19:35:00.187Z,45.88
2022-10-15T19:38:05.411Z,54.25
2022-10-15T19:41:11.275Z,51.53
2022-10-15T19:44:19.783Z,53.30
2022-10-15T19:47:29.046Z,53.08
2022-10-15T19:50:37.274Z,50.30
2022-10-15T19:53:44.790Z,49.10
2022-10-15T19:56:52.626Z,45.55
2022-10-15T19:59:58.217Z,44.75
2022-10-15T20:03:06.890Z,52.75
2022-10-15T20:06:14.595Z,48.50
2022-10-15T20:09:21.283Z,40.25
2022-10-15T20:12:26.220Z,42.33
2022-10-15T20:15:32.897Z,39.25
2022-10-15T20:18:39.978Z,51.68
2022-10-15T20:21:46.009Z,48.65
2022-10-15T20:24:51.283Z,48.05
2022-10-15T20:27:57.219Z,47.62
2022-10-15T20:31:03.585Z,47.45
2022-10-15T20:34:11.289Z,52.88
2022-10-15T20:37:19.172Z,52.58
2022-10-15T20:40:26.006Z,43.87
2022-10-15T20:43:33.396Z,51.70
2022-10-15T20:46:55.951Z,74.15
2022-10-15T20:50:04.870Z,54.18
2022-10-15T20:53:11.063Z,42.67
2022-10-15T20:56:17.180Z,44.03
2022-10-15T20:59:26.442Z,38.35
2022-10-15T21:02:32.503Z,38.67
2022-10-15T21:05:37.898Z,41.25
2022-10-15T21:08:45.466Z,42.40
2022-10-15T21:11:57.744Z,39.00
2022-10-15T21:15:05.279Z,39.18
2022-10-15T21:18:13.423Z,40.17
2022-10-15T21:21:21.077Z,40.90
2022-10-15T21:24:32.114Z,39.25
2022-10-15T21:27:39.320Z,42.17
2022-10-15T21:30:44.737Z,35.43
2022-10-15T21:33:50.491Z,42.45
2022-10-15T21:36:57.834Z,40.70
2022-10-15T21:40:05.928Z,35.85
2022-10-15T21:43:14.082Z,39.13
2022-10-15T21:46:22.191Z,39.75
2022-10-15T21:49:30.265Z,42.45
2022-10-15T21:52:37.551Z,34.08
2022-10-15T21:55:43.532Z,35.75
2022-10-15T21:58:49.951Z,29.32
2022-10-15T22:01:56.827Z,29.77
2022-10-15T22:05:03.424Z,33.67
2022-10-15T22:08:11.003Z,31.12
2022-10-15T22:11:39.616Z,32.23
2022-10-15T22:14:45.289Z,31.85
2022-10-15T22:17:51.804Z,32.53
2022-10-15T22:20:57.698Z,34.50
2022-10-15T22:24:06.844Z,39.50
2022-10-15T22:27:13.635Z,37.67
2022-10-15T22:30:21.007Z,38.10
2022-10-15T22:33:26.675Z,33.08
2022-10-15T22:36:36.597Z,36.73
2022-10-15T22:39:43.023Z,33.98
2022-10-15T22:42:49.892Z,34.75
2022-10-15T22:45:57.803Z,32.63
2022-10-15T22:49:04.017Z,34.78
2022-10-15T22:52:09.845Z,32.40
2022-10-15T22:55:15.939Z,32.03
2022-10-15T22:58:20.749Z,30.97
2022-10-15T23:01:39.243Z,32.13
2022-10-15T23:04:44.992Z,27.48
2022-10-15T23:07:50.641Z,27.98
2022-10-15T23:10:58.040Z,28.67
2022-10-15T23:14:05.278Z,32.63
2022-10-15T23:17:12.701Z,31.15
2022-10-15T23:20:19.812Z,29.40
2022-10-15T23:23:24.907Z,34.58
2022-10-15T23:26:31.919Z,30.20
2022-10-15T23:29:40.377Z,27.98
2022-10-15T23:32:46.174Z,26.97
2022-10-15T23:35:52.051Z,27.73
2022-10-15T23:39:06.489Z,28.65
2022-10-15T23:42:13.007Z,24.47
2022-10-15T23:45:21.054Z,28.83
2022-10-15T23:48:27.578Z,32.73
2022-10-15T23:51:44.882Z,24.15
2022-10-15T23:54:51.103Z,22.90
2022-10-15T23:57:57.188Z,25.88
